Melbourne, Washington
Current Conditions -  °F | °C
As of 6:53 PM on Monday 20 Oct 2014 (Local Time) from KSHN Reporting Station
Broken Clouds Broken Clouds  
Wind Chill: 55°   Ceiling: 7500
Heat Index: 55°   Visibility: 10mi
Dew Point: 52°   Wind: 5mph
Humidity: 89%   Direction: 260°W
Pressure: 29.74"   Gusts: NA
Location:  47.555°N, 123.746°W
Report Text: KSHN 210153Z AUTO 26004KT 10SM FEW034 SCT050 BKN075 13/11 A2974 RMK AO2 SLP073 T01280111 TSNO
Loading
Personal Weather Stations






























Interactive Weather Map
Tropical Storm Tracking
New forecast layout! Learn more

10-Day Weather Forecast

Advertisements
Track Severe Weather on mobile